createdAt,value
2023-01-13T00:00:06.496Z,90.67
2023-01-13T00:02:33.270Z,91.79
2023-01-13T00:04:59.692Z,92.52
2023-01-13T00:07:26.101Z,92.90
2023-01-13T00:09:52.428Z,91.26
2023-01-13T00:12:18.853Z,90.93
2023-01-13T00:14:45.213Z,91.08
2023-01-13T00:17:11.779Z,89.02
2023-01-13T00:19:38.172Z,90.34
2023-01-13T00:22:04.591Z,91.02
2023-01-13T00:24:30.941Z,90.62
2023-01-13T00:26:57.315Z,89.76
2023-01-13T00:29:23.657Z,89.94
2023-01-13T00:31:51.193Z,89.45
2023-01-13T00:34:17.613Z,89.48
2023-01-13T00:36:44.039Z,90.05
2023-01-13T00:39:10.513Z,90.77
2023-01-13T00:41:55.455Z,90.33
2023-01-13T00:44:21.732Z,90.97
2023-01-13T00:46:48.159Z,89.69
2023-01-13T00:49:14.594Z,89.52
2023-01-13T00:51:40.918Z,88.57
2023-01-13T00:54:07.803Z,89.52
2023-01-13T00:56:40.038Z,90.32
2023-01-13T00:59:07.800Z,90.05
2023-01-13T01:01:34.535Z,90.45
2023-01-13T01:04:00.953Z,90.84
2023-01-13T01:06:28.068Z,91.24
2023-01-13T01:08:55.465Z,92.02
2023-01-13T01:11:27.230Z,91.58
2023-01-13T01:13:56.340Z,90.92
2023-01-13T01:16:25.419Z,90.55
2023-01-13T01:18:53.873Z,91.03
2023-01-13T01:21:21.595Z,91.39
2023-01-13T01:23:48.129Z,90.68
2023-01-13T01:26:18.335Z,90.60
2023-01-13T01:28:45.323Z,90.51
2023-01-13T01:31:23.576Z,91.87
2023-01-13T01:33:50.118Z,91.66
2023-01-13T01:36:18.338Z,92.38
2023-01-13T01:38:45.888Z,93.15
2023-01-13T01:41:15.452Z,94.02
2023-01-13T01:44:07.720Z,93.27
2023-01-13T01:46:44.449Z,93.62
2023-01-13T01:49:21.311Z,94.22
2023-01-13T01:52:00.710Z,94.46
2023-01-13T01:54:40.276Z,93.23
2023-01-13T01:57:10.852Z,93.63
2023-01-13T01:59:38.507Z,93.57
2023-01-13T02:02:05.677Z,92.38
2023-01-13T02:04:37.724Z,93.12
2023-01-13T02:07:04.365Z,94.09
2023-01-13T02:09:31.055Z,92.48
2023-01-13T02:12:15.852Z,90.44
2023-01-13T02:14:43.092Z,91.20
2023-01-13T02:17:21.733Z,91.24
2023-01-13T02:20:15.436Z,89.69
2023-01-13T02:22:57.057Z,89.18
2023-01-13T02:25:58.721Z,88.06
2023-01-13T02:29:06.557Z,88.73
2023-01-13T02:31:44.658Z,89.64
2023-01-13T02:34:22.687Z,90.33
2023-01-13T02:37:19.465Z,90.20
2023-01-13T02:39:55.864Z,89.94
2023-01-13T02:42:47.195Z,89.09
2023-01-13T02:45:19.238Z,86.75
2023-01-13T02:47:50.121Z,87.34
2023-01-13T02:50:20.656Z,87.82
2023-01-13T02:53:05.803Z,88.88
2023-01-13T02:55:42.962Z,89.13
2023-01-13T02:58:14.631Z,89.94
2023-01-13T03:00:42.613Z,90.39
2023-01-13T03:03:09.091Z,88.90
2023-01-13T03:05:36.525Z,88.83
2023-01-13T03:08:11.263Z,89.72
2023-01-13T03:10:52.919Z,90.73
2023-01-13T03:13:56.389Z,91.45
2023-01-13T03:16:32.063Z,88.51
2023-01-13T03:19:14.269Z,89.01
2023-01-13T03:21:48.697Z,88.78
2023-01-13T03:24:25.717Z,88.84
2023-01-13T03:27:07.797Z,88.66
2023-01-13T03:29:40.683Z,86.98
2023-01-13T03:32:28.188Z,87.09
2023-01-13T03:35:04.368Z,85.20
2023-01-13T03:37:35.902Z,85.01
2023-01-13T03:40:07.508Z,85.01
2023-01-13T03:42:37.310Z,86.65
2023-01-13T03:45:15.389Z,87.78
2023-01-13T03:47:54.288Z,86.87
2023-01-13T03:50:33.405Z,87.45
2023-01-13T03:53:15.180Z,87.26
2023-01-13T03:55:48.481Z,88.75
2023-01-13T03:58:23.346Z,88.62
2023-01-13T04:00:59.922Z,88.08
2023-01-13T04:03:40.928Z,87.92
2023-01-13T04:06:45.107Z,89.70
2023-01-13T04:09:39.611Z,89.75
2023-01-13T04:12:14.297Z,88.27
2023-01-13T04:14:41.544Z,88.02
2023-01-13T04:17:07.925Z,87.72
2023-01-13T04:19:34.531Z,86.28
2023-01-13T04:22:00.924Z,87.14
2023-01-13T04:24:27.374Z,87.13
2023-01-13T04:26:53.890Z,87.63
2023-01-13T04:29:20.319Z,87.39
2023-01-13T04:31:46.750Z,86.66
2023-01-13T04:34:13.323Z,88.25
2023-01-13T04:36:39.939Z,88.27
2023-01-13T04:39:06.459Z,86.76
2023-01-13T04:41:52.808Z,85.81
2023-01-13T04:44:19.398Z,85.88
2023-01-13T04:46:46.182Z,86.13
2023-01-13T04:49:12.656Z,86.83
2023-01-13T04:51:39.053Z,86.80
2023-01-13T04:54:05.543Z,86.04
2023-01-13T04:56:31.966Z,86.21
2023-01-13T04:58:58.350Z,86.59
2023-01-13T05:01:24.815Z,87.21
2023-01-13T05:03:51.210Z,87.00
2023-01-13T05:06:17.610Z,86.78
2023-01-13T05:08:43.998Z,85.91
2023-01-13T05:11:29.187Z,86.28
2023-01-13T05:14:14.055Z,86.18
2023-01-13T05:16:58.891Z,86.79
2023-01-13T05:19:25.246Z,86.66
2023-01-13T05:22:10.352Z,87.76
2023-01-13T05:24:55.199Z,87.59
2023-01-13T05:27:21.496Z,86.43
2023-01-13T05:29:47.928Z,86.76
2023-01-13T05:32:14.344Z,86.68
2023-01-13T05:34:40.693Z,86.01
2023-01-13T05:37:08.243Z,85.74
2023-01-13T05:39:53.020Z,85.24
2023-01-13T05:42:37.779Z,84.01
2023-01-13T05:45:04.683Z,84.28
2023-01-13T05:47:32.209Z,84.18
2023-01-13T05:49:58.678Z,84.43
2023-01-13T05:52:25.172Z,84.57
2023-01-13T05:54:51.585Z,86.13
2023-01-13T05:57:17.951Z,88.32
2023-01-13T05:59:44.367Z,90.14
2023-01-13T06:02:10.731Z,93.38
2023-01-13T06:04:37.212Z,95.26
2023-01-13T06:07:03.696Z,94.42
2023-01-13T06:09:30.139Z,96.25
2023-01-13T06:11:56.548Z,98.20
2023-01-13T06:14:23.224Z,99.89
2023-01-13T06:16:49.901Z,97.36
2023-01-13T06:19:16.280Z,95.89
2023-01-13T06:21:44.903Z,95.60
2023-01-13T06:24:11.361Z,95.62
2023-01-13T06:26:41.431Z,95.29
2023-01-13T06:29:10.041Z,93.48
2023-01-13T06:31:39.439Z,92.96
2023-01-13T06:34:11.990Z,92.33
2023-01-13T06:36:41.869Z,92.60
2023-01-13T06:39:10.901Z,90.35
2023-01-13T06:41:56.358Z,90.15
2023-01-13T06:44:24.318Z,90.08
2023-01-13T06:46:53.877Z,89.17
2023-01-13T06:49:21.738Z,89.64
2023-01-13T06:51:48.693Z,90.24
2023-01-13T06:54:15.081Z,87.81
2023-01-13T06:56:41.532Z,90.07
2023-01-13T06:59:07.942Z,89.01
2023-01-13T07:01:34.454Z,87.91
2023-01-13T07:04:01.159Z,88.85
2023-01-13T07:06:27.525Z,89.13
2023-01-13T07:08:54.097Z,89.07
2023-01-13T07:11:20.698Z,88.83
2023-01-13T07:14:05.633Z,88.52
2023-01-13T07:16:32.203Z,87.77
2023-01-13T07:18:58.569Z,88.17
2023-01-13T07:21:25.095Z,87.66
2023-01-13T07:23:51.465Z,86.32
2023-01-13T07:26:17.865Z,86.52
2023-01-13T07:28:44.361Z,86.27
2023-01-13T07:31:16.530Z,86.43
2023-01-13T07:33:43.087Z,87.00
2023-01-13T07:36:09.895Z,86.77
2023-01-13T07:38:38.379Z,86.78
2023-01-13T07:41:23.363Z,86.66
2023-01-13T07:43:50.549Z,86.27
2023-01-13T07:46:18.118Z,85.90
2023-01-13T07:48:47.098Z,86.77
2023-01-13T07:51:13.543Z,86.88
2023-01-13T07:53:40.066Z,87.72
2023-01-13T07:56:07.294Z,87.65
2023-01-13T07:58:35.466Z,87.94
2023-01-13T08:01:12.085Z,87.33
2023-01-13T08:03:39.753Z,87.38
2023-01-13T08:06:07.052Z,86.96
2023-01-13T08:08:33.595Z,87.02
2023-01-13T08:11:04.435Z,86.89
2023-01-13T08:13:31.198Z,87.65
2023-01-13T08:16:07.078Z,87.11
2023-01-13T08:18:34.943Z,86.38
2023-01-13T08:21:12.046Z,86.42
2023-01-13T08:23:38.727Z,86.94
2023-01-13T08:26:07.927Z,87.46
2023-01-13T08:28:34.702Z,87.60
2023-01-13T08:31:06.310Z,87.53
2023-01-13T08:33:33.913Z,87.29
2023-01-13T08:36:05.148Z,87.93
2023-01-13T08:38:32.104Z,86.22
2023-01-13T08:40:58.941Z,85.57
2023-01-13T08:43:25.418Z,86.20
2023-01-13T08:45:59.526Z,86.12
2023-01-13T08:48:28.549Z,85.95
2023-01-13T08:51:05.509Z,85.85
2023-01-13T08:53:32.071Z,86.87
2023-01-13T08:55:58.463Z,86.80
2023-01-13T08:58:25.136Z,85.10
2023-01-13T09:00:51.640Z,84.16
2023-01-13T09:03:18.168Z,84.47
2023-01-13T09:05:44.647Z,85.34
2023-01-13T09:08:11.113Z,86.10
2023-01-13T09:10:37.625Z,86.72
2023-01-13T09:13:12.746Z,85.25
2023-01-13T09:15:45.256Z,85.38
2023-01-13T09:18:12.483Z,84.94
2023-01-13T09:20:39.327Z,86.19
2023-01-13T09:23:09.701Z,85.99
2023-01-13T09:25:36.913Z,86.11
2023-01-13T09:28:04.971Z,86.88
2023-01-13T09:30:31.711Z,86.99
2023-01-13T09:33:18.957Z,86.29
2023-01-13T09:35:45.493Z,85.97
2023-01-13T09:38:12.181Z,85.29
2023-01-13T09:40:41.399Z,85.17
2023-01-13T09:43:41.858Z,84.91
2023-01-13T09:46:38.849Z,85.23
2023-01-13T09:49:05.519Z,85.27
2023-01-13T09:51:40.876Z,85.53
2023-01-13T09:54:17.255Z,85.83
2023-01-13T09:56:43.697Z,85.80
2023-01-13T09:59:12.187Z,85.49
2023-01-13T10:02:00.431Z,85.33
2023-01-13T10:04:27.765Z,85.95
2023-01-13T10:07:01.333Z,85.66
2023-01-13T10:09:48.654Z,84.79
2023-01-13T10:12:39.023Z,84.91
2023-01-13T10:15:06.303Z,84.41
2023-01-13T10:17:46.932Z,84.87
2023-01-13T10:20:28.950Z,85.43
2023-01-13T10:23:20.275Z,85.61
2023-01-13T10:26:25.371Z,86.01
2023-01-13T10:28:53.646Z,85.39
2023-01-13T10:31:22.124Z,85.54
2023-01-13T10:33:49.342Z,85.12
2023-01-13T10:36:21.573Z,85.65
2023-01-13T10:38:50.410Z,84.93
2023-01-13T10:41:18.719Z,84.89
2023-01-13T10:44:01.218Z,85.11
2023-01-13T10:46:28.796Z,84.57
2023-01-13T10:49:00.644Z,83.98
2023-01-13T10:51:39.050Z,84.81
2023-01-13T10:54:11.639Z,85.29
2023-01-13T10:56:39.882Z,85.43
2023-01-13T10:59:12.963Z,85.56
2023-01-13T11:01:42.664Z,84.98
2023-01-13T11:04:27.415Z,85.27
2023-01-13T11:06:54.217Z,85.34
2023-01-13T11:09:22.565Z,85.65
2023-01-13T11:11:55.908Z,85.24
2023-01-13T11:14:36.899Z,85.16
2023-01-13T11:17:12.202Z,85.32
2023-01-13T11:19:47.061Z,85.43
2023-01-13T11:22:23.304Z,85.77
2023-01-13T11:25:06.006Z,85.68
2023-01-13T11:27:53.050Z,85.80
2023-01-13T11:30:36.491Z,84.96
2023-01-13T11:33:15.006Z,85.24
2023-01-13T11:36:02.633Z,85.68
2023-01-13T11:39:00.345Z,85.80
2023-01-13T11:42:07.720Z,85.59
2023-01-13T11:44:43.365Z,85.85
2023-01-13T11:47:12.712Z,86.31
2023-01-13T11:49:39.265Z,85.84
2023-01-13T11:52:45.863Z,86.18
2023-01-13T11:55:31.006Z,85.67
2023-01-13T11:58:29.057Z,86.72
2023-01-13T12:01:03.620Z,86.63
2023-01-13T12:03:35.624Z,86.32
2023-01-13T12:06:21.545Z,86.83
2023-01-13T12:09:03.276Z,86.79
2023-01-13T12:12:19.404Z,86.73
2023-01-13T12:15:22.206Z,86.63
2023-01-13T12:18:18.984Z,87.40
2023-01-13T12:21:12.822Z,88.29
2023-01-13T12:23:42.243Z,88.85
2023-01-13T12:26:14.040Z,89.01
2023-01-13T12:28:53.653Z,88.43
2023-01-13T12:31:21.985Z,88.85
2023-01-13T12:33:59.391Z,88.40
2023-01-13T12:36:49.506Z,87.43
2023-01-13T12:39:23.372Z,87.88
2023-01-13T12:42:13.727Z,87.40
2023-01-13T12:45:19.943Z,87.10
2023-01-13T12:47:46.461Z,87.97
2023-01-13T12:50:22.196Z,88.26
2023-01-13T12:52:50.407Z,88.33
2023-01-13T12:55:27.312Z,88.56
2023-01-13T12:58:02.810Z,88.11
2023-01-13T13:00:52.760Z,87.98
2023-01-13T13:03:33.973Z,87.38
2023-01-13T13:06:22.935Z,86.69
2023-01-13T13:09:18.527Z,86.55
2023-01-13T13:11:59.576Z,87.29
2023-01-13T13:14:41.412Z,87.08
2023-01-13T13:17:19.963Z,87.16
2023-01-13T13:19:48.775Z,86.97
2023-01-13T13:22:38.145Z,86.59
2023-01-13T13:25:04.519Z,86.43
2023-01-13T13:28:05.917Z,86.04
2023-01-13T13:30:48.691Z,86.62
2023-01-13T13:33:50.322Z,86.98
2023-01-13T13:36:41.599Z,86.83
2023-01-13T13:39:42.880Z,86.52
2023-01-13T13:42:34.737Z,85.80
2023-01-13T13:45:21.321Z,85.59
2023-01-13T13:47:47.846Z,85.25
2023-01-13T13:50:23.725Z,85.11
2023-01-13T13:52:56.490Z,85.80
2023-01-13T13:55:28.430Z,84.82
2023-01-13T13:57:57.512Z,84.08
2023-01-13T14:00:28.084Z,84.63
2023-01-13T14:03:01.429Z,85.07
2023-01-13T14:05:30.807Z,84.60
2023-01-13T14:08:17.377Z,85.54
2023-01-13T14:10:46.239Z,85.97
2023-01-13T14:13:20.160Z,85.25
2023-01-13T14:15:58.355Z,84.63
2023-01-13T14:18:26.296Z,84.68
2023-01-13T14:21:15.496Z,84.22
2023-01-13T14:23:51.164Z,84.48
2023-01-13T14:26:17.676Z,84.60
2023-01-13T14:28:44.985Z,85.07
2023-01-13T14:31:13.441Z,84.98
2023-01-13T14:33:51.666Z,85.35
2023-01-13T14:36:19.846Z,85.51
2023-01-13T14:38:48.941Z,84.97
2023-01-13T14:41:20.521Z,85.23
2023-01-13T14:43:49.351Z,85.46
2023-01-13T14:46:17.672Z,86.24
2023-01-13T14:48:47.166Z,86.15
2023-01-13T14:51:22.640Z,86.53
2023-01-13T14:53:49.912Z,87.00
2023-01-13T14:56:43.075Z,86.99
2023-01-13T14:59:31.090Z,86.76
2023-01-13T15:01:57.685Z,86.87
2023-01-13T15:04:27.361Z,87.04
2023-01-13T15:06:56.894Z,87.79
2023-01-13T15:09:27.007Z,87.10
2023-01-13T15:11:54.334Z,86.38
2023-01-13T15:14:29.923Z,86.61
2023-01-13T15:16:57.066Z,87.01
2023-01-13T15:19:23.745Z,87.50
2023-01-13T15:21:50.111Z,86.56
2023-01-13T15:24:16.756Z,85.56
2023-01-13T15:26:43.182Z,86.31
2023-01-13T15:29:15.141Z,86.40
2023-01-13T15:31:42.252Z,86.65
2023-01-13T15:34:08.642Z,87.18
2023-01-13T15:36:37.140Z,86.90
2023-01-13T15:39:04.059Z,87.69
2023-01-13T15:41:49.264Z,87.68
2023-01-13T15:44:35.524Z,87.59
2023-01-13T15:47:05.635Z,87.90
2023-01-13T15:49:44.116Z,86.90
2023-01-13T15:52:19.976Z,87.65
2023-01-13T15:54:46.434Z,88.43
2023-01-13T15:57:31.915Z,88.33
2023-01-13T16:00:01.788Z,88.27
2023-01-13T16:02:29.797Z,86.82
2023-01-13T16:04:56.506Z,87.21
2023-01-13T16:07:25.184Z,87.35
2023-01-13T16:09:51.910Z,87.65
2023-01-13T16:12:18.508Z,87.50
2023-01-13T16:14:44.900Z,89.53
2023-01-13T16:17:20.319Z,89.63
2023-01-13T16:19:47.380Z,89.34
2023-01-13T16:22:14.681Z,92.07
2023-01-13T16:24:41.421Z,93.05
2023-01-13T16:27:25.160Z,92.58
2023-01-13T16:29:52.656Z,92.04
2023-01-13T16:32:20.920Z,92.20
2023-01-13T16:34:48.003Z,92.60
2023-01-13T16:37:26.044Z,92.71
2023-01-13T16:39:53.810Z,92.38
2023-01-13T16:42:21.030Z,91.34
2023-01-13T16:44:48.543Z,89.87
2023-01-13T16:47:16.625Z,89.78
2023-01-13T16:49:43.603Z,90.16
2023-01-13T16:52:10.192Z,90.18
2023-01-13T16:54:36.697Z,90.85
2023-01-13T16:57:03.425Z,91.34
2023-01-13T16:59:29.999Z,91.00
2023-01-13T17:01:56.479Z,90.51
2023-01-13T17:04:23.564Z,90.85
2023-01-13T17:06:55.815Z,91.16
2023-01-13T17:09:25.058Z,91.54
2023-01-13T17:11:52.303Z,91.79
2023-01-13T17:14:21.718Z,90.93
2023-01-13T17:16:48.218Z,91.62
2023-01-13T17:19:14.814Z,91.43
2023-01-13T17:21:42.239Z,91.41
2023-01-13T17:24:10.699Z,91.63
2023-01-13T17:26:42.017Z,91.23
2023-01-13T17:29:13.313Z,91.01
2023-01-13T17:31:40.145Z,91.21
2023-01-13T17:34:06.729Z,91.93
2023-01-13T17:36:33.132Z,91.07
2023-01-13T17:38:59.593Z,91.73
2023-01-13T17:41:26.634Z,92.70
2023-01-13T17:43:53.655Z,92.32
2023-01-13T17:46:23.053Z,93.99
2023-01-13T17:48:53.659Z,94.44
2023-01-13T17:51:22.589Z,94.64
2023-01-13T17:53:49.037Z,94.91
2023-01-13T17:56:15.787Z,95.57
2023-01-13T17:58:42.693Z,96.42
2023-01-13T18:01:11.249Z,97.32
2023-01-13T18:03:38.793Z,97.82
2023-01-13T18:06:07.132Z,98.80
2023-01-13T18:08:33.562Z,98.86
2023-01-13T18:11:00.714Z,100.00
2023-01-13T18:13:28.037Z,99.77
2023-01-13T18:16:10.747Z,99.50
2023-01-13T18:18:38.505Z,98.63
2023-01-13T18:21:23.949Z,97.71
2023-01-13T18:24:09.544Z,94.75
2023-01-13T18:26:55.022Z,94.37
2023-01-13T18:29:21.808Z,92.48
2023-01-13T18:31:48.321Z,92.36
2023-01-13T18:34:14.819Z,92.00
2023-01-13T18:36:41.321Z,91.09
2023-01-13T18:39:07.709Z,90.68
2023-01-13T18:41:52.615Z,90.06
2023-01-13T18:44:19.023Z,90.66
2023-01-13T18:46:45.550Z,91.30
2023-01-13T18:49:12.021Z,91.47
2023-01-13T18:51:39.488Z,92.14
2023-01-13T18:54:05.975Z,91.81
2023-01-13T18:56:32.414Z,90.69
2023-01-13T18:58:59.138Z,90.40
2023-01-13T19:01:27.496Z,90.73
2023-01-13T19:04:04.958Z,90.80
2023-01-13T19:06:33.662Z,89.44
2023-01-13T19:09:01.849Z,89.78
2023-01-13T19:11:31.284Z,91.56
2023-01-13T19:13:57.689Z,95.06
2023-01-13T19:16:24.129Z,93.69
2023-01-13T19:18:50.659Z,93.11
2023-01-13T19:21:17.038Z,92.41
2023-01-13T19:23:43.640Z,92.12
2023-01-13T19:26:11.550Z,92.80
2023-01-13T19:28:42.486Z,92.90
2023-01-13T19:31:11.032Z,93.47
2023-01-13T19:33:39.509Z,93.29
2023-01-13T19:36:09.626Z,93.38
2023-01-13T19:38:37.421Z,93.59
2023-01-13T19:41:11.496Z,93.81
2023-01-13T19:43:56.388Z,93.89
2023-01-13T19:46:25.407Z,94.11
2023-01-13T19:48:51.819Z,94.65
2023-01-13T19:51:18.251Z,94.88
2023-01-13T19:53:46.891Z,95.69
2023-01-13T19:56:14.427Z,95.78
2023-01-13T19:58:41.989Z,96.64
2023-01-13T20:01:10.174Z,96.98
2023-01-13T20:03:37.696Z,96.35
2023-01-13T20:06:07.626Z,94.97
2023-01-13T20:08:34.067Z,95.10
2023-01-13T20:11:20.600Z,95.32
2023-01-13T20:13:48.046Z,95.49
2023-01-13T20:16:14.796Z,96.00
2023-01-13T20:18:41.349Z,95.85
2023-01-13T20:21:08.086Z,95.16
2023-01-13T20:23:34.616Z,93.60
2023-01-13T20:26:01.453Z,92.93
2023-01-13T20:28:27.869Z,93.47
2023-01-13T20:30:54.371Z,93.97
2023-01-13T20:33:20.794Z,94.54
2023-01-13T20:35:56.721Z,94.05
2023-01-13T20:38:23.210Z,93.99
2023-01-13T20:40:59.123Z,94.08
2023-01-13T20:43:26.806Z,94.62
2023-01-13T20:45:54.207Z,93.83
2023-01-13T20:48:20.709Z,93.26
2023-01-13T20:50:52.924Z,93.24
2023-01-13T20:53:19.302Z,93.19
2023-01-13T20:55:45.734Z,93.02
2023-01-13T20:58:12.178Z,92.81
2023-01-13T21:00:38.575Z,92.99
2023-01-13T21:03:05.307Z,92.73
2023-01-13T21:05:33.217Z,94.16
2023-01-13T21:07:59.866Z,93.69
2023-01-13T21:10:26.290Z,92.34
2023-01-13T21:13:11.202Z,92.38
2023-01-13T21:15:37.567Z,91.87
2023-01-13T21:18:22.801Z,92.18
2023-01-13T21:20:50.757Z,92.22
2023-01-13T21:23:17.182Z,91.68
2023-01-13T21:25:43.571Z,90.41
2023-01-13T21:28:11.175Z,90.14
2023-01-13T21:30:38.867Z,89.50
2023-01-13T21:33:06.137Z,90.64
2023-01-13T21:35:32.614Z,90.54
2023-01-13T21:37:59.149Z,90.61
2023-01-13T21:40:25.697Z,91.48
2023-01-13T21:43:10.479Z,92.16
2023-01-13T21:45:56.917Z,92.68
2023-01-13T21:48:23.378Z,92.22
2023-01-13T21:50:49.771Z,91.85
2023-01-13T21:53:16.141Z,91.45
2023-01-13T21:55:42.551Z,91.68
2023-01-13T21:58:13.219Z,91.44
2023-01-13T22:00:41.816Z,91.36
2023-01-13T22:03:09.586Z,91.71
2023-01-13T22:05:36.579Z,92.02
2023-01-13T22:08:03.505Z,92.01
2023-01-13T22:10:30.613Z,91.88
2023-01-13T22:12:59.587Z,90.81
2023-01-13T22:15:28.255Z,90.47
2023-01-13T22:17:55.531Z,91.61
2023-01-13T22:20:22.746Z,91.75
2023-01-13T22:22:49.852Z,92.63
2023-01-13T22:25:19.967Z,92.72
2023-01-13T22:27:48.151Z,93.63
2023-01-13T22:30:21.768Z,93.64
2023-01-13T22:32:48.537Z,93.59
2023-01-13T22:35:15.718Z,93.18
2023-01-13T22:37:42.944Z,92.32
2023-01-13T22:40:11.603Z,91.35
2023-01-13T22:42:39.978Z,92.41
2023-01-13T22:45:15.634Z,92.06
2023-01-13T22:47:42.206Z,92.52
2023-01-13T22:50:09.275Z,92.84
2023-01-13T22:52:35.890Z,92.58
2023-01-13T22:55:02.475Z,91.89
2023-01-13T22:57:46.679Z,92.87
2023-01-13T23:00:14.896Z,95.40
2023-01-13T23:02:41.634Z,95.46
2023-01-13T23:05:08.701Z,94.95
2023-01-13T23:07:35.628Z,94.67
2023-01-13T23:10:02.589Z,93.09
2023-01-13T23:12:28.981Z,92.82
2023-01-13T23:14:55.483Z,92.65
2023-01-13T23:17:21.917Z,92.15
2023-01-13T23:19:48.349Z,92.17
2023-01-13T23:22:15.547Z,92.17
2023-01-13T23:24:41.981Z,91.56
2023-01-13T23:27:08.370Z,91.18
2023-01-13T23:29:34.803Z,90.67
2023-01-13T23:32:01.283Z,89.71
2023-01-13T23:34:27.881Z,90.07
2023-01-13T23:36:54.292Z,89.47
2023-01-13T23:39:20.711Z,88.48
2023-01-13T23:41:47.092Z,89.00
2023-01-13T23:44:13.571Z,88.45
2023-01-13T23:46:40.058Z,88.71
2023-01-13T23:49:06.722Z,89.11
2023-01-13T23:51:33.486Z,89.59
2023-01-13T23:54:00.567Z,90.72
2023-01-13T23:56:30.905Z,91.26
2023-01-13T23:58:57.894Z,90.87
